首页
METAR-TAF:

METAR-TAF

机场 :

图勒空军基地

图勒, 格陵兰

纬度: 76-32N, 经度: 068-42W, 海拔: 77米

当前天气观测

该预报发布于1小时和2分钟前的19:56 UTC
风速6节,风向东南
温度 -23°C
湿度 76%
气压 997 hPa
能见度10公里或以上
少量云层高于4700英尺

METAR: BGTL 131956Z AUTO 14006KT 9999 FEW047 M23/M26 A2945 RMK AO2 SLP963 T12331261 TSNO CHINO RWY26 $

时间: 16:58 (20:58 UTC)

预报

该预报发布于2小时和51分钟前的18:07 UTC
预报有效从13日的 18点(UTC)到 14日的 24点(UTC)
风速9节,风向西转西北
能见度10公里或以上
少量云层高于3500英尺
成为
从 14日的 00点(UTC)到 14日的 01点(UTC)
风速6节,风向南转南东
能见度10公里或以上
散云层高于1000英尺
多云层高于2000英尺
阴天层高于3500英尺
成为
从 14日的 10点(UTC)到 14日的 11点(UTC)
风速6节,风向东转东南
能見度: 1410
少量云层高于2000英尺

TAF: BGTL 131807Z 1318/1424 30009KT 9999 FEW035 QNH2938INS BECMG 1400/1401 15006KT 9999 SCT010 BKN020 OVC035 QNH2949INS BECMG 1410/1411 12006KT 9999 FEW020 QNH2971INS TXM18/1401Z TNM28/1413Z LAST NO AMDS AFT 1320 NEXT 1410

超过4000个机场的气象观测和天气预报(METAR&TAF报告)。

可查询的气象台以黄色和红色小点在地图上表示。

将鼠标移到小点上方,可查看气象台名称。

然后点击查看天气观测和预报。

如需切换地图:点击带黑十字的绿色按钮放大地图;点击带横线的绿色按钮缩小地图;或者点击绿色箭头查看邻近地区的地图。


METAR-TAF: